sensor_id;sensor_type;location;lat;lon;timestamp;P1;durP1;ratioP1;P2;durP2;ratioP2
73266;SDS011;61495;53.400;7.608;2022-07-23T00:01:28;4.47;;;1.52;;
73266;SDS011;61495;53.400;7.608;2022-07-23T00:03:54;4.85;;;1.67;;
73266;SDS011;61495;53.400;7.608;2022-07-23T00:06:20;3.40;;;1.55;;
73266;SDS011;61495;53.400;7.608;2022-07-23T00:08:46;3.17;;;1.60;;
73266;SDS011;61495;53.400;7.608;2022-07-23T00:11:11;2.60;;;1.38;;
73266;SDS011;61495;53.400;7.608;2022-07-23T00:13:37;4.25;;;1.60;;
73266;SDS011;61495;53.400;7.608;2022-07-23T00:16:02;4.30;;;1.92;;
73266;SDS011;61495;53.400;7.608;2022-07-23T00:18:28;3.38;;;1.92;;
73266;SDS011;61495;53.400;7.608;2022-07-23T00:20:53;4.72;;;2.00;;
73266;SDS011;61495;53.400;7.608;2022-07-23T00:23:18;4.57;;;1.75;;
73266;SDS011;61495;53.400;7.608;2022-07-23T00:25:44;4.63;;;1.70;;
73266;SDS011;61495;53.400;7.608;2022-07-23T00:28:12;4.47;;;2.05;;
73266;SDS011;61495;53.400;7.608;2022-07-23T00:30:38;5.35;;;2.20;;
73266;SDS011;61495;53.400;7.608;2022-07-23T00:33:04;4.07;;;1.80;;
73266;SDS011;61495;53.400;7.608;2022-07-23T00:35:32;3.00;;;1.92;;
73266;SDS011;61495;53.400;7.608;2022-07-23T00:37:59;5.20;;;1.73;;
73266;SDS011;61495;53.400;7.608;2022-07-23T00:40:25;3.80;;;1.90;;
73266;SDS011;61495;53.400;7.608;2022-07-23T00:42:51;5.38;;;1.88;;
73266;SDS011;61495;53.400;7.608;2022-07-23T00:45:17;6.68;;;1.90;;
73266;SDS011;61495;53.400;7.608;2022-07-23T00:47:42;2.70;;;1.38;;
73266;SDS011;61495;53.400;7.608;2022-07-23T00:50:08;5.28;;;1.55;;
73266;SDS011;61495;53.400;7.608;2022-07-23T00:52:35;4.05;;;1.58;;
73266;SDS011;61495;53.400;7.608;2022-07-23T00:55:02;4.95;;;1.90;;
73266;SDS011;61495;53.400;7.608;2022-07-23T00:57:28;4.38;;;1.73;;
73266;SDS011;61495;53.400;7.608;2022-07-23T00:59:54;4.88;;;1.42;;
73266;SDS011;61495;53.400;7.608;2022-07-23T01:02:19;4.45;;;2.00;;
73266;SDS011;61495;53.400;7.608;2022-07-23T01:04:45;3.78;;;1.80;;
73266;SDS011;61495;53.400;7.608;2022-07-23T01:07:10;3.00;;;1.40;;
73266;SDS011;61495;53.400;7.608;2022-07-23T01:09:36;3.58;;;1.42;;
73266;SDS011;61495;53.400;7.608;2022-07-23T01:12:02;4.95;;;1.60;;
73266;SDS011;61495;53.400;7.608;2022-07-23T01:14:28;3.78;;;1.95;;
73266;SDS011;61495;53.400;7.608;2022-07-23T01:16:53;4.15;;;1.70;;
73266;SDS011;61495;53.400;7.608;2022-07-23T01:19:19;3.35;;;1.38;;
73266;SDS011;61495;53.400;7.608;2022-07-23T01:21:45;3.67;;;1.55;;
73266;SDS011;61495;53.400;7.608;2022-07-23T01:24:13;2.90;;;1.42;;
73266;SDS011;61495;53.400;7.608;2022-07-23T01:26:41;3.58;;;1.92;;
73266;SDS011;61495;53.400;7.608;2022-07-23T01:29:08;4.85;;;1.73;;
73266;SDS011;61495;53.400;7.608;2022-07-23T01:31:34;5.63;;;1.80;;
73266;SDS011;61495;53.400;7.608;2022-07-23T01:33:59;3.08;;;1.50;;
73266;SDS011;61495;53.400;7.608;2022-07-23T01:36:24;5.13;;;1.73;;
73266;SDS011;61495;53.400;7.608;2022-07-23T01:38:50;5.32;;;2.15;;
73266;SDS011;61495;53.400;7.608;2022-07-23T01:41:16;4.63;;;2.08;;
73266;SDS011;61495;53.400;7.608;2022-07-23T01:43:41;6.22;;;2.28;;
73266;SDS011;61495;53.400;7.608;2022-07-23T01:46:07;3.55;;;1.55;;
73266;SDS011;61495;53.400;7.608;2022-07-23T01:48:32;3.33;;;1.67;;
73266;SDS011;61495;53.400;7.608;2022-07-23T01:50:58;4.25;;;1.70;;
73266;SDS011;61495;53.400;7.608;2022-07-23T01:53:23;3.78;;;1.38;;
73266;SDS011;61495;53.400;7.608;2022-07-23T01:55:49;5.28;;;1.30;;
73266;SDS011;61495;53.400;7.608;2022-07-23T01:58:14;4.18;;;1.20;;
73266;SDS011;61495;53.400;7.608;2022-07-23T02:00:40;2.78;;;0.90;;
73266;SDS011;61495;53.400;7.608;2022-07-23T02:03:05;2.35;;;1.02;;
73266;SDS011;61495;53.400;7.608;2022-07-23T02:05:31;1.92;;;0.98;;
73266;SDS011;61495;53.400;7.608;2022-07-23T02:07:59;1.88;;;0.90;;
73266;SDS011;61495;53.400;7.608;2022-07-23T02:10:25;4.25;;;1.15;;
73266;SDS011;61495;53.400;7.608;2022-07-23T02:12:51;3.83;;;1.10;;
73266;SDS011;61495;53.400;7.608;2022-07-23T02:15:16;2.63;;;1.17;;
73266;SDS011;61495;53.400;7.608;2022-07-23T02:17:41;2.95;;;1.00;;
73266;SDS011;61495;53.400;7.608;2022-07-23T02:20:07;2.15;;;1.00;;
73266;SDS011;61495;53.400;7.608;2022-07-23T02:22:34;2.55;;;0.80;;
73266;SDS011;61495;53.400;7.608;2022-07-23T02:25:00;2.70;;;0.88;;
73266;SDS011;61495;53.400;7.608;2022-07-23T02:27:25;4.25;;;1.15;;
73266;SDS011;61495;53.400;7.608;2022-07-23T02:29:51;2.88;;;1.20;;
73266;SDS011;61495;53.400;7.608;2022-07-23T02:32:16;3.20;;;0.90;;
73266;SDS011;61495;53.400;7.608;2022-07-23T02:34:41;4.00;;;1.20;;
73266;SDS011;61495;53.400;7.608;2022-07-23T02:37:07;2.80;;;1.25;;
73266;SDS011;61495;53.400;7.608;2022-07-23T02:39:33;3.40;;;1.30;;
73266;SDS011;61495;53.400;7.608;2022-07-23T02:42:00;4.35;;;1.45;;
73266;SDS011;61495;53.400;7.608;2022-07-23T02:44:25;3.38;;;1.23;;
73266;SDS011;61495;53.400;7.608;2022-07-23T02:46:51;6.65;;;1.55;;
73266;SDS011;61495;53.400;7.608;2022-07-23T02:49:16;3.33;;;1.40;;
73266;SDS011;61495;53.400;7.608;2022-07-23T02:51:42;4.00;;;1.60;;
73266;SDS011;61495;53.400;7.608;2022-07-23T02:54:07;4.30;;;1.65;;
73266;SDS011;61495;53.400;7.608;2022-07-23T02:56:33;2.45;;;1.55;;
73266;SDS011;61495;53.400;7.608;2022-07-23T02:58:58;2.30;;;1.13;;
73266;SDS011;61495;53.400;7.608;2022-07-23T03:01:23;3.05;;;1.33;;
73266;SDS011;61495;53.400;7.608;2022-07-23T03:03:49;3.63;;;1.73;;
73266;SDS011;61495;53.400;7.608;2022-07-23T03:06:14;3.53;;;1.60;;
73266;SDS011;61495;53.400;7.608;2022-07-23T03:08:39;4.32;;;1.60;;
73266;SDS011;61495;53.400;7.608;2022-07-23T03:11:05;4.75;;;1.42;;
73266;SDS011;61495;53.400;7.608;2022-07-23T03:13:35;3.15;;;1.42;;
73266;SDS011;61495;53.400;7.608;2022-07-23T03:16:04;2.92;;;1.23;;
73266;SDS011;61495;53.400;7.608;2022-07-23T03:18:30;3.72;;;1.52;;
73266;SDS011;61495;53.400;7.608;2022-07-23T03:20:56;3.45;;;2.10;;
73266;SDS011;61495;53.400;7.608;2022-07-23T03:23:21;3.42;;;1.45;;
73266;SDS011;61495;53.400;7.608;2022-07-23T03:25:47;4.28;;;1.67;;
73266;SDS011;61495;53.400;7.608;2022-07-23T03:28:15;3.17;;;1.50;;
73266;SDS011;61495;53.400;7.608;2022-07-23T03:30:42;3.60;;;1.90;;
73266;SDS011;61495;53.400;7.608;2022-07-23T03:33:08;4.03;;;1.52;;
73266;SDS011;61495;53.400;7.608;2022-07-23T03:35:34;3.25;;;1.48;;
73266;SDS011;61495;53.400;7.608;2022-07-23T03:37:59;3.70;;;1.45;;
73266;SDS011;61495;53.400;7.608;2022-07-23T03:40:25;3.65;;;1.42;;
73266;SDS011;61495;53.400;7.608;2022-07-23T03:42:50;3.00;;;1.40;;
73266;SDS011;61495;53.400;7.608;2022-07-23T03:45:15;4.70;;;1.17;;
73266;SDS011;61495;53.400;7.608;2022-07-23T03:47:41;3.28;;;1.33;;
73266;SDS011;61495;53.400;7.608;2022-07-23T03:50:07;2.83;;;1.42;;
73266;SDS011;61495;53.400;7.608;2022-07-23T03:52:32;3.33;;;1.55;;
73266;SDS011;61495;53.400;7.608;2022-07-23T03:54:58;3.22;;;1.55;;
73266;SDS011;61495;53.400;7.608;2022-07-23T03:57:23;3.63;;;1.55;;
73266;SDS011;61495;53.400;7.608;2022-07-23T03:59:48;4.28;;;1.40;;
73266;SDS011;61495;53.400;7.608;2022-07-23T04:02:14;4.45;;;2.10;;
73266;SDS011;61495;53.400;7.608;2022-07-23T04:04:39;3.35;;;1.67;;
73266;SDS011;61495;53.400;7.608;2022-07-23T04:07:04;5.80;;;2.65;;
73266;SDS011;61495;53.400;7.608;2022-07-23T04:09:31;3.20;;;1.33;;
73266;SDS011;61495;53.400;7.608;2022-07-23T04:11:56;5.93;;;1.50;;
73266;SDS011;61495;53.400;7.608;2022-07-23T04:14:22;3.30;;;1.65;;
73266;SDS011;61495;53.400;7.608;2022-07-23T04:16:47;3.45;;;1.85;;
73266;SDS011;61495;53.400;7.608;2022-07-23T04:19:13;5.57;;;1.63;;
73266;SDS011;61495;53.400;7.608;2022-07-23T04:21:38;4.63;;;2.00;;
73266;SDS011;61495;53.400;7.608;2022-07-23T04:24:03;4.38;;;2.03;;
73266;SDS011;61495;53.400;7.608;2022-07-23T04:26:29;5.75;;;1.73;;
73266;SDS011;61495;53.400;7.608;2022-07-23T04:28:55;3.58;;;1.70;;
73266;SDS011;61495;53.400;7.608;2022-07-23T04:31:20;4.68;;;1.92;;
73266;SDS011;61495;53.400;7.608;2022-07-23T04:33:46;3.60;;;1.45;;
73266;SDS011;61495;53.400;7.608;2022-07-23T04:36:11;4.32;;;2.05;;
73266;SDS011;61495;53.400;7.608;2022-07-23T04:38:36;4.63;;;1.80;;
73266;SDS011;61495;53.400;7.608;2022-07-23T04:41:02;3.65;;;2.08;;
73266;SDS011;61495;53.400;7.608;2022-07-23T04:43:27;3.83;;;1.98;;
73266;SDS011;61495;53.400;7.608;2022-07-23T04:45:52;4.10;;;1.98;;
73266;SDS011;61495;53.400;7.608;2022-07-23T04:48:18;4.28;;;2.03;;
73266;SDS011;61495;53.400;7.608;2022-07-23T04:50:46;4.05;;;2.20;;
73266;SDS011;61495;53.400;7.608;2022-07-23T04:53:12;5.00;;;1.83;;
73266;SDS011;61495;53.400;7.608;2022-07-23T04:55:37;6.72;;;2.22;;
73266;SDS011;61495;53.400;7.608;2022-07-23T04:58:02;4.90;;;2.17;;
73266;SDS011;61495;53.400;7.608;2022-07-23T05:00:28;3.60;;;1.83;;
73266;SDS011;61495;53.400;7.608;2022-07-23T05:02:53;3.78;;;2.00;;
73266;SDS011;61495;53.400;7.608;2022-07-23T05:05:18;7.28;;;2.67;;
73266;SDS011;61495;53.400;7.608;2022-07-23T05:07:44;4.53;;;2.15;;
73266;SDS011;61495;53.400;7.608;2022-07-23T05:10:09;5.32;;;2.17;;
73266;SDS011;61495;53.400;7.608;2022-07-23T05:12:34;5.20;;;2.42;;
73266;SDS011;61495;53.400;7.608;2022-07-23T05:15:00;5.63;;;2.97;;
73266;SDS011;61495;53.400;7.608;2022-07-23T05:17:25;5.05;;;2.20;;
73266;SDS011;61495;53.400;7.608;2022-07-23T05:19:51;5.60;;;3.13;;
73266;SDS011;61495;53.400;7.608;2022-07-23T05:22:16;5.28;;;2.22;;
73266;SDS011;61495;53.400;7.608;2022-07-23T05:24:41;5.40;;;2.20;;
73266;SDS011;61495;53.400;7.608;2022-07-23T05:27:08;4.28;;;2.42;;
73266;SDS011;61495;53.400;7.608;2022-07-23T05:29:33;4.80;;;2.30;;
73266;SDS011;61495;53.400;7.608;2022-07-23T05:31:59;5.47;;;2.53;;
73266;SDS011;61495;53.400;7.608;2022-07-23T05:34:24;5.10;;;2.75;;
73266;SDS011;61495;53.400;7.608;2022-07-23T05:36:49;4.68;;;2.00;;
73266;SDS011;61495;53.400;7.608;2022-07-23T05:39:15;4.82;;;2.28;;
73266;SDS011;61495;53.400;7.608;2022-07-23T05:41:40;5.15;;;1.90;;
73266;SDS011;61495;53.400;7.608;2022-07-23T05:44:06;3.97;;;1.88;;
73266;SDS011;61495;53.400;7.608;2022-07-23T05:46:31;4.22;;;2.10;;
73266;SDS011;61495;53.400;7.608;2022-07-23T05:48:57;6.20;;;2.28;;
73266;SDS011;61495;53.400;7.608;2022-07-23T05:51:22;4.53;;;2.03;;
73266;SDS011;61495;53.400;7.608;2022-07-23T05:53:49;5.32;;;2.50;;
73266;SDS011;61495;53.400;7.608;2022-07-23T05:56:15;4.75;;;1.63;;
73266;SDS011;61495;53.400;7.608;2022-07-23T05:58:40;4.20;;;2.22;;
73266;SDS011;61495;53.400;7.608;2022-07-23T06:01:06;4.63;;;2.72;;
73266;SDS011;61495;53.400;7.608;2022-07-23T06:03:31;4.40;;;2.03;;
73266;SDS011;61495;53.400;7.608;2022-07-23T06:05:57;5.93;;;2.88;;
73266;SDS011;61495;53.400;7.608;2022-07-23T06:08:22;4.38;;;1.98;;
73266;SDS011;61495;53.400;7.608;2022-07-23T06:10:47;4.43;;;2.40;;
73266;SDS011;61495;53.400;7.608;2022-07-23T06:13:13;7.72;;;2.17;;
73266;SDS011;61495;53.400;7.608;2022-07-23T06:15:39;4.78;;;2.83;;
73266;SDS011;61495;53.400;7.608;2022-07-23T06:18:04;3.80;;;2.28;;
73266;SDS011;61495;53.400;7.608;2022-07-23T06:20:30;6.32;;;2.42;;
73266;SDS011;61495;53.400;7.608;2022-07-23T06:22:55;3.50;;;2.08;;
73266;SDS011;61495;53.400;7.608;2022-07-23T06:25:21;5.10;;;2.35;;
73266;SDS011;61495;53.400;7.608;2022-07-23T06:27:46;4.18;;;2.10;;
73266;SDS011;61495;53.400;7.608;2022-07-23T06:30:12;4.55;;;2.08;;
73266;SDS011;61495;53.400;7.608;2022-07-23T06:32:38;5.32;;;2.10;;
73266;SDS011;61495;53.400;7.608;2022-07-23T06:35:04;4.07;;;1.90;;
73266;SDS011;61495;53.400;7.608;2022-07-23T06:37:29;7.30;;;2.33;;
73266;SDS011;61495;53.400;7.608;2022-07-23T06:39:55;6.00;;;2.22;;
73266;SDS011;61495;53.400;7.608;2022-07-23T06:42:21;6.20;;;2.28;;
73266;SDS011;61495;53.400;7.608;2022-07-23T06:44:46;5.65;;;2.00;;
73266;SDS011;61495;53.400;7.608;2022-07-23T06:47:11;4.88;;;2.15;;
73266;SDS011;61495;53.400;7.608;2022-07-23T06:49:40;5.97;;;2.42;;
73266;SDS011;61495;53.400;7.608;2022-07-23T06:52:06;3.70;;;2.10;;
73266;SDS011;61495;53.400;7.608;2022-07-23T06:54:32;3.63;;;1.83;;
73266;SDS011;61495;53.400;7.608;2022-07-23T06:56:57;5.20;;;2.00;;
73266;SDS011;61495;53.400;7.608;2022-07-23T06:59:23;5.75;;;2.20;;
73266;SDS011;61495;53.400;7.608;2022-07-23T07:01:48;3.58;;;1.65;;
73266;SDS011;61495;53.400;7.608;2022-07-23T07:04:14;3.70;;;1.60;;
73266;SDS011;61495;53.400;7.608;2022-07-23T07:06:39;4.63;;;2.33;;
73266;SDS011;61495;53.400;7.608;2022-07-23T07:09:05;3.35;;;1.60;;
73266;SDS011;61495;53.400;7.608;2022-07-23T07:11:30;4.63;;;1.95;;
73266;SDS011;61495;53.400;7.608;2022-07-23T07:13:55;3.10;;;1.55;;
73266;SDS011;61495;53.400;7.608;2022-07-23T07:16:21;5.47;;;1.45;;
73266;SDS011;61495;53.400;7.608;2022-07-23T07:18:46;3.03;;;1.33;;
73266;SDS011;61495;53.400;7.608;2022-07-23T07:21:12;4.10;;;1.55;;
73266;SDS011;61495;53.400;7.608;2022-07-23T07:23:37;3.85;;;1.10;;
73266;SDS011;61495;53.400;7.608;2022-07-23T07:26:02;3.40;;;1.25;;
73266;SDS011;61495;53.400;7.608;2022-07-23T07:28:28;2.60;;;1.23;;
73266;SDS011;61495;53.400;7.608;2022-07-23T07:30:53;2.83;;;1.30;;
73266;SDS011;61495;53.400;7.608;2022-07-23T07:33:19;2.67;;;1.40;;
73266;SDS011;61495;53.400;7.608;2022-07-23T07:35:45;2.92;;;1.33;;
73266;SDS011;61495;53.400;7.608;2022-07-23T07:38:11;2.70;;;1.17;;
73266;SDS011;61495;53.400;7.608;2022-07-23T07:40:36;3.60;;;1.30;;
73266;SDS011;61495;53.400;7.608;2022-07-23T07:43:09;2.47;;;0.95;;
73266;SDS011;61495;53.400;7.608;2022-07-23T07:45:36;2.20;;;0.82;;
73266;SDS011;61495;53.400;7.608;2022-07-23T07:48:02;3.70;;;1.40;;
73266;SDS011;61495;53.400;7.608;2022-07-23T07:53:21;3.95;;;0.90;;
73266;SDS011;61495;53.400;7.608;2022-07-23T07:55:47;2.10;;;0.80;;
73266;SDS011;61495;53.400;7.608;2022-07-23T07:58:12;1.42;;;0.80;;
73266;SDS011;61495;53.400;7.608;2022-07-23T08:00:38;3.17;;;0.95;;
73266;SDS011;61495;53.400;7.608;2022-07-23T08:03:03;1.00;;;0.70;;
73266;SDS011;61495;53.400;7.608;2022-07-23T08:05:29;0.95;;;0.55;;
73266;SDS011;61495;53.400;7.608;2022-07-23T08:07:56;1.63;;;0.82;;
73266;SDS011;61495;53.400;7.608;2022-07-23T08:10:22;0.75;;;0.50;;
73266;SDS011;61495;53.400;7.608;2022-07-23T08:12:49;1.42;;;0.70;;
73266;SDS011;61495;53.400;7.608;2022-07-23T08:15:17;0.47;;;0.45;;
73266;SDS011;61495;53.400;7.608;2022-07-23T08:17:44;0.88;;;0.55;;
73266;SDS011;61495;53.400;7.608;2022-07-23T08:20:11;1.50;;;0.60;;
73266;SDS011;61495;53.400;7.608;2022-07-23T08:22:55;1.10;;;0.50;;
73266;SDS011;61495;53.400;7.608;2022-07-23T08:25:31;1.58;;;0.70;;
73266;SDS011;61495;53.400;7.608;2022-07-23T08:27:59;1.23;;;0.60;;
73266;SDS011;61495;53.400;7.608;2022-07-23T08:30:26;3.10;;;0.98;;
73266;SDS011;61495;53.400;7.608;2022-07-23T08:35:22;1.40;;;0.70;;
73266;SDS011;61495;53.400;7.608;2022-07-23T08:37:49;1.10;;;0.70;;
73266;SDS011;61495;53.400;7.608;2022-07-23T08:40:15;1.90;;;0.68;;
73266;SDS011;61495;53.400;7.608;2022-07-23T08:42:40;1.95;;;0.80;;
73266;SDS011;61495;53.400;7.608;2022-07-23T08:45:07;1.30;;;0.60;;
73266;SDS011;61495;53.400;7.608;2022-07-23T08:47:34;1.65;;;0.77;;
73266;SDS011;61495;53.400;7.608;2022-07-23T08:50:02;0.98;;;0.70;;
73266;SDS011;61495;53.400;7.608;2022-07-23T08:52:27;2.08;;;0.90;;
73266;SDS011;61495;53.400;7.608;2022-07-23T08:54:55;1.88;;;0.80;;
73266;SDS011;61495;53.400;7.608;2022-07-23T08:57:22;1.83;;;0.70;;
73266;SDS011;61495;53.400;7.608;2022-07-23T08:59:47;1.77;;;0.90;;
73266;SDS011;61495;53.400;7.608;2022-07-23T09:02:13;3.20;;;0.90;;
73266;SDS011;61495;53.400;7.608;2022-07-23T09:04:38;1.83;;;0.80;;
73266;SDS011;61495;53.400;7.608;2022-07-23T09:07:04;1.60;;;0.70;;
73266;SDS011;61495;53.400;7.608;2022-07-23T09:09:30;5.05;;;0.82;;
73266;SDS011;61495;53.400;7.608;2022-07-23T09:12:03;6.15;;;1.25;;
73266;SDS011;61495;53.400;7.608;2022-07-23T09:14:36;1.98;;;1.00;;
73266;SDS011;61495;53.400;7.608;2022-07-23T09:17:09;3.60;;;1.00;;
73266;SDS011;61495;53.400;7.608;2022-07-23T09:19:35;1.92;;;0.95;;
73266;SDS011;61495;53.400;7.608;2022-07-23T09:22:22;2.03;;;0.80;;
73266;SDS011;61495;53.400;7.608;2022-07-23T09:25:07;1.30;;;0.68;;
73266;SDS011;61495;53.400;7.608;2022-07-23T09:30:18;3.10;;;0.90;;
73266;SDS011;61495;53.400;7.608;2022-07-23T09:32:44;2.30;;;0.82;;
73266;SDS011;61495;53.400;7.608;2022-07-23T09:35:43;1.50;;;0.65;;
73266;SDS011;61495;53.400;7.608;2022-07-23T09:38:11;3.15;;;0.85;;
73266;SDS011;61495;53.400;7.608;2022-07-23T09:40:37;2.92;;;0.88;;
73266;SDS011;61495;53.400;7.608;2022-07-23T09:43:03;2.55;;;1.42;;
73266;SDS011;61495;53.400;7.608;2022-07-23T09:45:28;3.65;;;1.00;;
73266;SDS011;61495;53.400;7.608;2022-07-23T09:48:12;2.15;;;0.88;;
73266;SDS011;61495;53.400;7.608;2022-07-23T09:50:43;0.95;;;0.68;;
73266;SDS011;61495;53.400;7.608;2022-07-23T09:53:09;1.80;;;0.80;;
73266;SDS011;61495;53.400;7.608;2022-07-23T09:55:48;19.02;;;2.53;;
73266;SDS011;61495;53.400;7.608;2022-07-23T09:58:14;2.17;;;0.77;;
73266;SDS011;61495;53.400;7.608;2022-07-23T10:00:42;1.98;;;1.08;;
73266;SDS011;61495;53.400;7.608;2022-07-23T10:03:09;0.90;;;0.40;;
73266;SDS011;61495;53.400;7.608;2022-07-23T10:05:36;2.17;;;0.77;;
73266;SDS011;61495;53.400;7.608;2022-07-23T10:08:03;1.85;;;0.80;;
73266;SDS011;61495;53.400;7.608;2022-07-23T10:10:32;2.40;;;0.98;;
73266;SDS011;61495;53.400;7.608;2022-07-23T10:12:58;4.20;;;1.08;;
73266;SDS011;61495;53.400;7.608;2022-07-23T10:15:39;3.38;;;0.82;;
73266;SDS011;61495;53.400;7.608;2022-07-23T10:18:06;2.08;;;1.00;;
73266;SDS011;61495;53.400;7.608;2022-07-23T10:20:35;2.40;;;0.70;;
73266;SDS011;61495;53.400;7.608;2022-07-23T10:31:46;10.75;;;1.73;;
73266;SDS011;61495;53.400;7.608;2022-07-23T10:36:52;4.03;;;1.38;;
73266;SDS011;61495;53.400;7.608;2022-07-23T10:42:16;3.35;;;1.17;;
73266;SDS011;61495;53.400;7.608;2022-07-23T10:44:46;2.28;;;1.00;;
73266;SDS011;61495;53.400;7.608;2022-07-23T10:50:23;1.88;;;0.90;;
73266;SDS011;61495;53.400;7.608;2022-07-23T10:57:59;5.68;;;1.23;;
73266;SDS011;61495;53.400;7.608;2022-07-23T11:00:29;2.55;;;1.08;;
73266;SDS011;61495;53.400;7.608;2022-07-23T11:03:27;6.45;;;0.98;;
73266;SDS011;61495;53.400;7.608;2022-07-23T11:05:57;3.13;;;0.93;;
73266;SDS011;61495;53.400;7.608;2022-07-23T11:08:23;3.05;;;1.17;;
73266;SDS011;61495;53.400;7.608;2022-07-23T11:10:55;2.35;;;0.95;;
73266;SDS011;61495;53.400;7.608;2022-07-23T11:13:44;2.88;;;0.90;;
73266;SDS011;61495;53.400;7.608;2022-07-23T11:16:13;2.08;;;0.88;;
73266;SDS011;61495;53.400;7.608;2022-07-23T11:31:53;2.42;;;1.10;;
73266;SDS011;61495;53.400;7.608;2022-07-23T11:37:06;3.03;;;1.00;;
73266;SDS011;61495;53.400;7.608;2022-07-23T11:39:34;5.90;;;1.23;;
73266;SDS011;61495;53.400;7.608;2022-07-23T11:42:00;6.30;;;1.30;;
73266;SDS011;61495;53.400;7.608;2022-07-23T11:46:56;5.75;;;1.30;;
73266;SDS011;61495;53.400;7.608;2022-07-23T11:49:23;4.50;;;1.35;;
73266;SDS011;61495;53.400;7.608;2022-07-23T11:52:02;4.95;;;1.00;;
73266;SDS011;61495;53.400;7.608;2022-07-23T11:54:33;3.83;;;0.88;;
73266;SDS011;61495;53.400;7.608;2022-07-23T11:57:01;1.85;;;0.95;;
73266;SDS011;61495;53.400;7.608;2022-07-23T11:59:28;1.83;;;0.93;;
73266;SDS011;61495;53.400;7.608;2022-07-23T12:04:24;2.78;;;0.73;;
73266;SDS011;61495;53.400;7.608;2022-07-23T12:06:50;2.13;;;1.15;;
73266;SDS011;61495;53.400;7.608;2022-07-23T12:09:16;1.13;;;0.80;;
73266;SDS011;61495;53.400;7.608;2022-07-23T12:11:57;2.03;;;0.80;;
73266;SDS011;61495;53.400;7.608;2022-07-23T12:14:26;1.50;;;0.80;;
73266;SDS011;61495;53.400;7.608;2022-07-23T12:17:08;1.95;;;1.00;;
73266;SDS011;61495;53.400;7.608;2022-07-23T12:19:34;1.38;;;0.70;;
73266;SDS011;61495;53.400;7.608;2022-07-23T12:22:00;1.50;;;0.70;;
73266;SDS011;61495;53.400;7.608;2022-07-23T12:24:26;2.47;;;0.90;;
73266;SDS011;61495;53.400;7.608;2022-07-23T12:27:10;2.63;;;0.80;;
73266;SDS011;61495;53.400;7.608;2022-07-23T12:29:36;2.47;;;0.90;;
73266;SDS011;61495;53.400;7.608;2022-07-23T12:32:02;1.67;;;0.70;;
73266;SDS011;61495;53.400;7.608;2022-07-23T12:34:44;2.20;;;0.80;;
73266;SDS011;61495;53.400;7.608;2022-07-23T12:37:32;2.45;;;0.80;;
73266;SDS011;61495;53.400;7.608;2022-07-23T12:40:18;2.55;;;0.95;;
73266;SDS011;61495;53.400;7.608;2022-07-23T12:42:45;1.38;;;0.70;;
73266;SDS011;61495;53.400;7.608;2022-07-23T12:45:12;1.55;;;0.77;;
73266;SDS011;61495;53.400;7.608;2022-07-23T12:50:52;1.45;;;0.82;;
73266;SDS011;61495;53.400;7.608;2022-07-23T12:53:39;1.60;;;0.90;;
73266;SDS011;61495;53.400;7.608;2022-07-23T12:56:08;2.30;;;0.80;;
73266;SDS011;61495;53.400;7.608;2022-07-23T13:01:44;2.53;;;0.85;;
73266;SDS011;61495;53.400;7.608;2022-07-23T13:04:17;2.13;;;0.88;;
73266;SDS011;61495;53.400;7.608;2022-07-23T13:06:45;2.50;;;0.90;;
73266;SDS011;61495;53.400;7.608;2022-07-23T13:09:14;2.97;;;1.05;;
73266;SDS011;61495;53.400;7.608;2022-07-23T13:11:42;2.33;;;0.93;;
73266;SDS011;61495;53.400;7.608;2022-07-23T13:14:08;2.47;;;0.82;;
73266;SDS011;61495;53.400;7.608;2022-07-23T13:16:34;2.53;;;1.10;;
73266;SDS011;61495;53.400;7.608;2022-07-23T13:19:00;1.85;;;0.90;;
73266;SDS011;61495;53.400;7.608;2022-07-23T13:21:26;3.88;;;1.00;;
73266;SDS011;61495;53.400;7.608;2022-07-23T13:23:53;2.22;;;0.90;;
73266;SDS011;61495;53.400;7.608;2022-07-23T13:26:18;1.63;;;0.88;;
73266;SDS011;61495;53.400;7.608;2022-07-23T13:28:44;1.85;;;0.60;;
73266;SDS011;61495;53.400;7.608;2022-07-23T13:31:10;2.22;;;0.93;;
73266;SDS011;61495;53.400;7.608;2022-07-23T13:33:35;1.55;;;1.00;;
73266;SDS011;61495;53.400;7.608;2022-07-23T13:36:01;3.25;;;0.70;;
73266;SDS011;61495;53.400;7.608;2022-07-23T13:38:27;3.28;;;0.80;;
73266;SDS011;61495;53.400;7.608;2022-07-23T13:40:53;2.85;;;1.08;;
73266;SDS011;61495;53.400;7.608;2022-07-23T13:43:20;2.95;;;1.05;;
73266;SDS011;61495;53.400;7.608;2022-07-23T13:45:47;2.60;;;1.10;;
73266;SDS011;61495;53.400;7.608;2022-07-23T13:48:13;3.17;;;1.23;;
73266;SDS011;61495;53.400;7.608;2022-07-23T13:50:39;1.20;;;0.60;;
73266;SDS011;61495;53.400;7.608;2022-07-23T13:53:07;2.85;;;1.05;;
73266;SDS011;61495;53.400;7.608;2022-07-23T13:55:35;1.73;;;0.90;;
73266;SDS011;61495;53.400;7.608;2022-07-23T13:58:01;1.88;;;1.00;;
73266;SDS011;61495;53.400;7.608;2022-07-23T14:00:27;2.35;;;1.13;;
73266;SDS011;61495;53.400;7.608;2022-07-23T14:02:53;2.17;;;0.82;;
73266;SDS011;61495;53.400;7.608;2022-07-23T14:05:19;1.90;;;0.90;;
73266;SDS011;61495;53.400;7.608;2022-07-23T14:07:45;3.30;;;1.00;;
73266;SDS011;61495;53.400;7.608;2022-07-23T14:10:14;2.47;;;0.90;;
73266;SDS011;61495;53.400;7.608;2022-07-23T14:12:42;2.35;;;1.00;;
73266;SDS011;61495;53.400;7.608;2022-07-23T14:15:07;4.03;;;1.23;;
73266;SDS011;61495;53.400;7.608;2022-07-23T14:17:34;2.72;;;1.23;;
73266;SDS011;61495;53.400;7.608;2022-07-23T14:20:03;3.47;;;1.08;;
73266;SDS011;61495;53.400;7.608;2022-07-23T14:22:29;1.65;;;0.80;;
73266;SDS011;61495;53.400;7.608;2022-07-23T14:24:54;1.65;;;0.90;;
73266;SDS011;61495;53.400;7.608;2022-07-23T14:27:22;1.63;;;1.00;;
73266;SDS011;61495;53.400;7.608;2022-07-23T14:29:48;1.95;;;1.10;;
73266;SDS011;61495;53.400;7.608;2022-07-23T14:32:14;1.73;;;0.95;;
73266;SDS011;61495;53.400;7.608;2022-07-23T14:34:39;2.03;;;1.10;;
73266;SDS011;61495;53.400;7.608;2022-07-23T14:37:05;5.35;;;1.08;;
73266;SDS011;61495;53.400;7.608;2022-07-23T14:39:30;1.92;;;1.10;;
73266;SDS011;61495;53.400;7.608;2022-07-23T14:41:56;2.65;;;1.20;;
73266;SDS011;61495;53.400;7.608;2022-07-23T14:44:21;2.13;;;0.88;;
73266;SDS011;61495;53.400;7.608;2022-07-23T14:46:47;3.58;;;1.00;;
73266;SDS011;61495;53.400;7.608;2022-07-23T14:49:13;3.38;;;1.10;;
73266;SDS011;61495;53.400;7.608;2022-07-23T14:51:38;2.70;;;1.15;;
73266;SDS011;61495;53.400;7.608;2022-07-23T14:54:06;3.00;;;1.40;;
73266;SDS011;61495;53.400;7.608;2022-07-23T14:56:31;1.73;;;1.02;;
73266;SDS011;61495;53.400;7.608;2022-07-23T14:58:58;2.10;;;1.20;;
73266;SDS011;61495;53.400;7.608;2022-07-23T15:01:24;2.08;;;0.98;;
73266;SDS011;61495;53.400;7.608;2022-07-23T15:03:50;4.57;;;1.40;;
73266;SDS011;61495;53.400;7.608;2022-07-23T15:06:16;2.40;;;0.90;;
73266;SDS011;61495;53.400;7.608;2022-07-23T15:08:43;2.42;;;1.20;;
73266;SDS011;61495;53.400;7.608;2022-07-23T15:11:08;3.67;;;1.25;;
73266;SDS011;61495;53.400;7.608;2022-07-23T15:13:34;2.90;;;1.20;;
73266;SDS011;61495;53.400;7.608;2022-07-23T15:16:02;3.22;;;1.20;;
73266;SDS011;61495;53.400;7.608;2022-07-23T15:18:29;3.28;;;1.33;;
73266;SDS011;61495;53.400;7.608;2022-07-23T15:20:54;2.10;;;1.08;;
73266;SDS011;61495;53.400;7.608;2022-07-23T15:23:20;3.40;;;1.00;;
73266;SDS011;61495;53.400;7.608;2022-07-23T15:25:45;2.65;;;1.20;;
73266;SDS011;61495;53.400;7.608;2022-07-23T15:28:11;2.28;;;1.10;;
73266;SDS011;61495;53.400;7.608;2022-07-23T15:30:36;2.60;;;1.42;;
73266;SDS011;61495;53.400;7.608;2022-07-23T15:33:02;2.20;;;1.30;;
73266;SDS011;61495;53.400;7.608;2022-07-23T15:35:27;1.98;;;1.00;;
73266;SDS011;61495;53.400;7.608;2022-07-23T15:37:55;3.25;;;1.42;;
73266;SDS011;61495;53.400;7.608;2022-07-23T15:40:20;3.42;;;1.10;;
73266;SDS011;61495;53.400;7.608;2022-07-23T15:42:46;3.50;;;1.30;;
73266;SDS011;61495;53.400;7.608;2022-07-23T15:45:11;3.20;;;1.10;;